Log in Register

Login to your account

Username *
Password *
Remember Me

Create an account

Fields marked with an asterisk (*) are required.
Name *
Username *
Password *
Verify password *
Email *
Verify email *
Captcha *

Vous êtes passioné(e)s d'aviation ? Vous êtes interressé(e)s par une formation au pilotage ? Vous souhaitez offrir ou vous offrir un vol de découverte ?

Notre équipe dynamique vous accueille dans un environnement de vol exceptionel

Retrouvez toutes les informations qui peuvent vous interresser en parcourant notre site. N'hésitez pas à nous contacter si vous souhaitez en savoir plus ! 

Nous repassons en horaires d'été ! Retrouvez nos horaires d'ouverture ici

Fermeture exceptionelle du Secrétariat du 21/05 au 07/06. Des permanences bénévoles sont assurées cf rubrique contact

⇓ RETROUVEZ TOUTES NOS ACTUS ET EVENEMENTS CI DESSOUS ⇓

 

IMG 7090 20

Nous contacter

 Téléphone : +33 (0)4 79 54 41 81

Coordonnées détaillées et accès : cliquez ici

facebook 770688 960 720  logo instagram large

[source: ADDS]
METAR / TAF
LFLB 260130Z AUTO 36008KT CAVOK 16/09 Q1023 =
TAF LFLB 251400Z 2515/2615 36010KT CAVOK TEMPO 2515/2522 BKN060

SR / SS: 03:54 / 19:12 UTC (Lever/Coucher du soleil le 2022-05-26)
JSN Boot template designed by JoomlaShine.com